Tomkins Cove, New York
Current Conditions -  °F | °C
As of 3:45 AM on Sunday 21 Dec 2014 (Local Time) from KSWF Reporting Station
Haze Haze  
Wind Chill: -7°   Ceiling: 2000
Heat Index: -3°   Visibility: 3mi
Dew Point: -4°   Wind: 7mph
Humidity: 93%   Direction: 6°N
Pressure: 30.28"   Gusts: NA
Location:  41.26°N, 73.98°W
Report Text: KSWF 210845Z 00606KT 3SM BR OVC020 M03/M04 A3028
Loading
Personal Weather Stations






























Interactive Weather Map New forecast layout! Learn more

10-Day Weather Forecast

Advertisements
Track Severe Weather on mobile